sensor_id;sensor_type;location;lat;lon;timestamp;pressure;altitude;pressure_sealevel;temperature;humidity
84028;BME280;74111;45.650;25.612;2024-01-15T00:00:09;94035.69;;;-2.08;59.46
84028;BME280;74111;45.650;25.612;2024-01-15T00:02:39;94033.90;;;-2.09;59.44
84028;BME280;74111;45.650;25.612;2024-01-15T00:05:07;94033.05;;;-2.11;59.39
84028;BME280;74111;45.650;25.612;2024-01-15T00:07:36;94034.18;;;-2.11;59.61
84028;BME280;74111;45.650;25.612;2024-01-15T00:10:07;94035.05;;;-2.13;59.54
84028;BME280;74111;45.650;25.612;2024-01-15T00:12:55;94035.55;;;-2.19;59.57
84028;BME280;74111;45.650;25.612;2024-01-15T00:15:28;94039.55;;;-2.22;60.35
84028;BME280;74111;45.650;25.612;2024-01-15T00:18:01;94039.82;;;-2.23;59.96
84028;BME280;74111;45.650;25.612;2024-01-15T00:20:29;94045.00;;;-2.25;60.11
84028;BME280;74111;45.650;25.612;2024-01-15T00:22:58;94043.26;;;-2.27;59.75
84028;BME280;74111;45.650;25.612;2024-01-15T00:25:26;94039.91;;;-2.27;59.51
84028;BME280;74111;45.650;25.612;2024-01-15T00:27:54;94038.59;;;-2.24;60.01
84028;BME280;74111;45.650;25.612;2024-01-15T00:30:22;94031.91;;;-2.20;60.55
84028;BME280;74111;45.650;25.612;2024-01-15T00:32:51;94033.63;;;-2.16;60.61
84028;BME280;74111;45.650;25.612;2024-01-15T00:35:19;94042.05;;;-2.12;60.39
84028;BME280;74111;45.650;25.612;2024-01-15T00:37:47;94044.02;;;-2.10;60.19
84028;BME280;74111;45.650;25.612;2024-01-15T00:40:15;94040.80;;;-2.08;60.07
84028;BME280;74111;45.650;25.612;2024-01-15T00:42:44;94048.62;;;-2.08;59.86
84028;BME280;74111;45.650;25.612;2024-01-15T00:45:12;94045.27;;;-2.10;59.72
84028;BME280;74111;45.650;25.612;2024-01-15T00:47:40;94047.69;;;-2.12;59.68
84028;BME280;74111;45.650;25.612;2024-01-15T00:50:09;94044.05;;;-2.16;59.62
84028;BME280;74111;45.650;25.612;2024-01-15T00:52:37;94042.70;;;-2.20;59.92
84028;BME280;74111;45.650;25.612;2024-01-15T00:55:06;94034.71;;;-2.25;60.01
84028;BME280;74111;45.650;25.612;2024-01-15T00:57:34;94031.13;;;-2.29;60.06
84028;BME280;74111;45.650;25.612;2024-01-15T01:00:03;94032.57;;;-2.35;60.67
84028;BME280;74111;45.650;25.612;2024-01-15T01:02:34;94033.03;;;-2.45;60.98
84028;BME280;74111;45.650;25.612;2024-01-15T01:05:02;94033.27;;;-2.48;60.76
84028;BME280;74111;45.650;25.612;2024-01-15T01:07:31;94035.64;;;-2.54;60.71
84028;BME280;74111;45.650;25.612;2024-01-15T01:09:59;94033.02;;;-2.60;60.86
84028;BME280;74111;45.650;25.612;2024-01-15T01:12:27;94026.56;;;-2.67;60.98
84028;BME280;74111;45.650;25.612;2024-01-15T01:14:57;94021.81;;;-2.73;60.57
84028;BME280;74111;45.650;25.612;2024-01-15T01:17:27;94023.86;;;-2.74;60.58
84028;BME280;74111;45.650;25.612;2024-01-15T01:19:56;94024.20;;;-2.77;61.27
84028;BME280;74111;45.650;25.612;2024-01-15T01:22:24;94023.30;;;-2.79;61.70
84028;BME280;74111;45.650;25.612;2024-01-15T01:24:52;94022.08;;;-2.80;61.31
84028;BME280;74111;45.650;25.612;2024-01-15T01:27:21;94022.20;;;-2.82;62.03
84028;BME280;74111;45.650;25.612;2024-01-15T01:29:50;94017.95;;;-2.84;61.36
84028;BME280;74111;45.650;25.612;2024-01-15T01:32:19;94012.16;;;-2.81;60.66
84028;BME280;74111;45.650;25.612;2024-01-15T01:34:47;94006.03;;;-2.79;60.88
84028;BME280;74111;45.650;25.612;2024-01-15T01:37:15;93999.92;;;-2.80;61.44
84028;BME280;74111;45.650;25.612;2024-01-15T01:39:44;93998.86;;;-2.87;61.40
84028;BME280;74111;45.650;25.612;2024-01-15T01:42:12;93994.15;;;-2.92;61.20
84028;BME280;74111;45.650;25.612;2024-01-15T01:44:41;93994.07;;;-2.93;61.95
84028;BME280;74111;45.650;25.612;2024-01-15T01:47:09;93994.14;;;-2.93;61.08
84028;BME280;74111;45.650;25.612;2024-01-15T01:49:38;93991.80;;;-2.89;61.20
84028;BME280;74111;45.650;25.612;2024-01-15T01:52:06;93992.84;;;-2.89;61.45
84028;BME280;74111;45.650;25.612;2024-01-15T01:54:39;93991.27;;;-2.90;61.94
84028;BME280;74111;45.650;25.612;2024-01-15T01:57:09;93987.85;;;-2.87;62.33
84028;BME280;74111;45.650;25.612;2024-01-15T01:59:37;93984.51;;;-2.85;62.16
84028;BME280;74111;45.650;25.612;2024-01-15T02:02:07;93982.42;;;-2.83;62.12
84028;BME280;74111;45.650;25.612;2024-01-15T02:04:36;93979.16;;;-2.86;62.18
84028;BME280;74111;45.650;25.612;2024-01-15T02:07:05;93977.85;;;-2.86;62.33
84028;BME280;74111;45.650;25.612;2024-01-15T02:09:33;93977.27;;;-2.87;62.12
84028;BME280;74111;45.650;25.612;2024-01-15T02:12:01;93975.26;;;-2.90;62.33
84028;BME280;74111;45.650;25.612;2024-01-15T02:14:30;93971.94;;;-2.98;62.29
84028;BME280;74111;45.650;25.612;2024-01-15T02:16:58;93970.17;;;-3.01;61.99
84028;BME280;74111;45.650;25.612;2024-01-15T02:19:27;93972.52;;;-3.02;61.97
84028;BME280;74111;45.650;25.612;2024-01-15T02:21:55;93973.19;;;-3.06;62.55
84028;BME280;74111;45.650;25.612;2024-01-15T02:24:23;93968.16;;;-3.08;62.27
84028;BME280;74111;45.650;25.612;2024-01-15T02:26:52;93962.79;;;-3.09;62.32
84028;BME280;74111;45.650;25.612;2024-01-15T02:29:20;93959.38;;;-3.10;62.47
84028;BME280;74111;45.650;25.612;2024-01-15T02:31:48;93957.30;;;-3.10;62.31
84028;BME280;74111;45.650;25.612;2024-01-15T02:34:16;93952.36;;;-3.12;62.27
84028;BME280;74111;45.650;25.612;2024-01-15T02:36:45;93945.12;;;-3.14;62.64
84028;BME280;74111;45.650;25.612;2024-01-15T02:39:13;93942.80;;;-3.16;63.21
84028;BME280;74111;45.650;25.612;2024-01-15T02:41:42;93938.64;;;-3.20;63.66
84028;BME280;74111;45.650;25.612;2024-01-15T02:44:10;93934.88;;;-3.20;62.84
84028;BME280;74111;45.650;25.612;2024-01-15T02:46:38;93929.14;;;-3.21;63.22
84028;BME280;74111;45.650;25.612;2024-01-15T02:49:06;93925.28;;;-3.18;62.58
84028;BME280;74111;45.650;25.612;2024-01-15T02:51:34;93922.95;;;-3.12;62.23
84028;BME280;74111;45.650;25.612;2024-01-15T02:54:03;93916.11;;;-3.10;62.79
84028;BME280;74111;45.650;25.612;2024-01-15T02:56:31;93921.00;;;-3.14;62.72
84028;BME280;74111;45.650;25.612;2024-01-15T02:58:59;93920.34;;;-3.17;62.93
84028;BME280;74111;45.650;25.612;2024-01-15T03:01:28;93922.67;;;-3.17;62.67
84028;BME280;74111;45.650;25.612;2024-01-15T03:03:56;93922.41;;;-3.15;62.98
84028;BME280;74111;45.650;25.612;2024-01-15T03:06:25;93918.38;;;-3.11;63.06
84028;BME280;74111;45.650;25.612;2024-01-15T03:08:53;93916.04;;;-3.06;62.96
84028;BME280;74111;45.650;25.612;2024-01-15T03:11:22;93913.13;;;-2.98;63.46
84028;BME280;74111;45.650;25.612;2024-01-15T03:13:50;93899.19;;;-2.91;63.50
84028;BME280;74111;45.650;25.612;2024-01-15T03:16:18;93898.55;;;-2.83;63.24
84028;BME280;74111;45.650;25.612;2024-01-15T03:18:48;93901.48;;;-2.73;63.21
84028;BME280;74111;45.650;25.612;2024-01-15T03:21:16;93901.89;;;-2.67;62.98
84028;BME280;74111;45.650;25.612;2024-01-15T03:23:44;93903.20;;;-2.62;62.91
84028;BME280;74111;45.650;25.612;2024-01-15T03:26:12;93897.86;;;-2.60;63.00
84028;BME280;74111;45.650;25.612;2024-01-15T03:28:41;93892.64;;;-2.60;62.96
84028;BME280;74111;45.650;25.612;2024-01-15T03:31:09;93893.42;;;-2.59;62.58
84028;BME280;74111;45.650;25.612;2024-01-15T03:33:37;93883.48;;;-2.60;62.66
84028;BME280;74111;45.650;25.612;2024-01-15T03:36:07;93890.16;;;-2.58;62.61
84028;BME280;74111;45.650;25.612;2024-01-15T03:38:40;93887.75;;;-2.58;62.71
84028;BME280;74111;45.650;25.612;2024-01-15T03:41:09;93893.94;;;-2.60;62.92
84028;BME280;74111;45.650;25.612;2024-01-15T03:43:37;93885.21;;;-2.61;62.74
84028;BME280;74111;45.650;25.612;2024-01-15T03:46:07;93884.62;;;-2.58;62.44
84028;BME280;74111;45.650;25.612;2024-01-15T03:48:35;93882.44;;;-2.57;62.87
84028;BME280;74111;45.650;25.612;2024-01-15T03:51:03;93875.45;;;-2.57;63.12
84028;BME280;74111;45.650;25.612;2024-01-15T03:53:32;93869.52;;;-2.57;62.81
84028;BME280;74111;45.650;25.612;2024-01-15T03:56:00;93866.69;;;-2.54;63.08
84028;BME280;74111;45.650;25.612;2024-01-15T03:58:28;93860.75;;;-2.54;63.00
84028;BME280;74111;45.650;25.612;2024-01-15T04:00:56;93857.84;;;-2.56;63.13
84028;BME280;74111;45.650;25.612;2024-01-15T04:03:25;93856.45;;;-2.55;63.21
84028;BME280;74111;45.650;25.612;2024-01-15T04:05:53;93856.84;;;-2.53;63.07
84028;BME280;74111;45.650;25.612;2024-01-15T04:08:21;93845.69;;;-2.53;63.32
84028;BME280;74111;45.650;25.612;2024-01-15T04:10:49;93842.77;;;-2.53;62.66
84028;BME280;74111;45.650;25.612;2024-01-15T04:13:17;93838.87;;;-2.51;62.43
84028;BME280;74111;45.650;25.612;2024-01-15T04:15:46;93834.95;;;-2.52;63.12
84028;BME280;74111;45.650;25.612;2024-01-15T04:18:16;93834.33;;;-2.56;62.80
84028;BME280;74111;45.650;25.612;2024-01-15T04:20:44;93831.04;;;-2.58;62.64
84028;BME280;74111;45.650;25.612;2024-01-15T04:23:13;93832.66;;;-2.59;63.22
84028;BME280;74111;45.650;25.612;2024-01-15T04:25:43;93835.48;;;-2.64;63.04
84028;BME280;74111;45.650;25.612;2024-01-15T04:28:12;93838.45;;;-2.67;63.06
84028;BME280;74111;45.650;25.612;2024-01-15T04:30:41;93834.78;;;-2.71;63.17
84028;BME280;74111;45.650;25.612;2024-01-15T04:33:09;93828.93;;;-2.66;62.51
84028;BME280;74111;45.650;25.612;2024-01-15T04:35:37;93831.82;;;-2.59;62.82
84028;BME280;74111;45.650;25.612;2024-01-15T04:38:06;93835.11;;;-2.55;62.91
84028;BME280;74111;45.650;25.612;2024-01-15T04:40:34;93831.66;;;-2.52;63.39
84028;BME280;74111;45.650;25.612;2024-01-15T04:43:02;93830.68;;;-2.45;63.07
84028;BME280;74111;45.650;25.612;2024-01-15T04:45:31;93832.93;;;-2.44;62.40
84028;BME280;74111;45.650;25.612;2024-01-15T04:47:59;93831.70;;;-2.54;62.15
84028;BME280;74111;45.650;25.612;2024-01-15T04:50:27;93837.26;;;-2.63;62.09
84028;BME280;74111;45.650;25.612;2024-01-15T04:52:55;93833.80;;;-2.71;62.09
84028;BME280;74111;45.650;25.612;2024-01-15T04:55:23;93828.06;;;-2.82;62.26
84028;BME280;74111;45.650;25.612;2024-01-15T04:57:52;93824.66;;;-2.88;62.22
84028;BME280;74111;45.650;25.612;2024-01-15T05:00:20;93824.66;;;-2.93;62.05
84028;BME280;74111;45.650;25.612;2024-01-15T05:02:48;93828.30;;;-3.05;62.01
84028;BME280;74111;45.650;25.612;2024-01-15T05:05:16;93835.23;;;-3.12;62.06
84028;BME280;74111;45.650;25.612;2024-01-15T05:07:44;93825.23;;;-3.18;62.40
84028;BME280;74111;45.650;25.612;2024-01-15T05:10:13;93829.48;;;-3.24;62.47
84028;BME280;74111;45.650;25.612;2024-01-15T05:12:41;93824.98;;;-3.30;62.55
84028;BME280;74111;45.650;25.612;2024-01-15T05:15:09;93827.62;;;-3.33;62.91
84028;BME280;74111;45.650;25.612;2024-01-15T05:17:38;93832.16;;;-3.36;62.86
84028;BME280;74111;45.650;25.612;2024-01-15T05:20:07;93832.71;;;-3.37;62.77
84028;BME280;74111;45.650;25.612;2024-01-15T05:22:35;93832.45;;;-3.38;62.98
84028;BME280;74111;45.650;25.612;2024-01-15T05:25:03;93823.64;;;-3.40;63.59
84028;BME280;74111;45.650;25.612;2024-01-15T05:27:32;93823.91;;;-3.38;63.24
84028;BME280;74111;45.650;25.612;2024-01-15T05:30:00;93824.54;;;-3.34;63.87
84028;BME280;74111;45.650;25.612;2024-01-15T05:32:28;93820.16;;;-3.35;64.27
84028;BME280;74111;45.650;25.612;2024-01-15T05:34:56;93814.02;;;-3.37;64.53
84028;BME280;74111;45.650;25.612;2024-01-15T05:37:24;93820.64;;;-3.33;63.73
84028;BME280;74111;45.650;25.612;2024-01-15T05:39:53;93816.55;;;-3.27;63.88
84028;BME280;74111;45.650;25.612;2024-01-15T05:42:21;93817.70;;;-3.20;64.32
84028;BME280;74111;45.650;25.612;2024-01-15T05:44:50;93813.43;;;-3.12;64.40
84028;BME280;74111;45.650;25.612;2024-01-15T05:47:19;93812.85;;;-3.07;64.32
84028;BME280;74111;45.650;25.612;2024-01-15T05:49:48;93822.43;;;-3.08;63.87
84028;BME280;74111;45.650;25.612;2024-01-15T05:52:16;93826.41;;;-3.10;63.63
84028;BME280;74111;45.650;25.612;2024-01-15T05:54:44;93826.42;;;-3.09;63.95
84028;BME280;74111;45.650;25.612;2024-01-15T05:57:13;93819.41;;;-3.07;63.48
84028;BME280;74111;45.650;25.612;2024-01-15T05:59:42;93816.73;;;-3.04;63.95
84028;BME280;74111;45.650;25.612;2024-01-15T06:02:11;93812.80;;;-3.04;63.55
84028;BME280;74111;45.650;25.612;2024-01-15T06:04:40;93810.02;;;-3.04;63.87
84028;BME280;74111;45.650;25.612;2024-01-15T06:07:08;93808.02;;;-3.03;63.36
84028;BME280;74111;45.650;25.612;2024-01-15T06:09:36;93808.02;;;-3.05;63.26
84028;BME280;74111;45.650;25.612;2024-01-15T06:12:07;93804.27;;;-3.06;63.20
84028;BME280;74111;45.650;25.612;2024-01-15T06:14:35;93801.29;;;-3.03;63.26
84028;BME280;74111;45.650;25.612;2024-01-15T06:17:04;93801.67;;;-3.00;63.08
84028;BME280;74111;45.650;25.612;2024-01-15T06:19:32;93807.11;;;-2.98;63.16
84028;BME280;74111;45.650;25.612;2024-01-15T06:22:00;93810.13;;;-2.99;63.09
84028;BME280;74111;45.650;25.612;2024-01-15T06:24:29;93808.38;;;-3.03;63.01
84028;BME280;74111;45.650;25.612;2024-01-15T06:26:57;93808.12;;;-3.06;63.25
84028;BME280;74111;45.650;25.612;2024-01-15T06:29:26;93813.34;;;-2.99;63.43
84028;BME280;74111;45.650;25.612;2024-01-15T06:31:55;93805.73;;;-2.96;63.08
84028;BME280;74111;45.650;25.612;2024-01-15T06:34:23;93804.64;;;-2.95;63.12
84028;BME280;74111;45.650;25.612;2024-01-15T06:36:51;93797.18;;;-2.96;62.97
84028;BME280;74111;45.650;25.612;2024-01-15T06:39:19;93812.04;;;-2.95;63.16
84028;BME280;74111;45.650;25.612;2024-01-15T06:41:48;93798.13;;;-2.95;63.26
84028;BME280;74111;45.650;25.612;2024-01-15T06:44:16;93796.52;;;-2.95;63.63
84028;BME280;74111;45.650;25.612;2024-01-15T06:46:45;93795.38;;;-2.94;63.61
84028;BME280;74111;45.650;25.612;2024-01-15T06:49:13;93791.73;;;-2.89;63.71
84028;BME280;74111;45.650;25.612;2024-01-15T06:51:42;93792.30;;;-2.78;64.20
84028;BME280;74111;45.650;25.612;2024-01-15T06:54:12;93793.30;;;-2.64;64.31
84028;BME280;74111;45.650;25.612;2024-01-15T06:56:40;93793.96;;;-2.54;64.14
84028;BME280;74111;45.650;25.612;2024-01-15T06:59:08;93790.79;;;-2.47;63.84
84028;BME280;74111;45.650;25.612;2024-01-15T07:01:36;93788.86;;;-2.39;63.18
84028;BME280;74111;45.650;25.612;2024-01-15T07:04:05;93782.34;;;-2.32;63.24
84028;BME280;74111;45.650;25.612;2024-01-15T07:06:33;93780.85;;;-2.22;62.91
84028;BME280;74111;45.650;25.612;2024-01-15T07:09:01;93780.95;;;-2.15;62.50
84028;BME280;74111;45.650;25.612;2024-01-15T07:11:30;93787.17;;;-2.09;63.92
84028;BME280;74111;45.650;25.612;2024-01-15T07:13:58;93789.45;;;-0.33;69.82
84028;BME280;74111;45.650;25.612;2024-01-15T07:16:26;93797.55;;;1.85;69.20
84028;BME280;74111;45.650;25.612;2024-01-15T07:19:05;93798.54;;;3.54;66.17
84028;BME280;74111;45.650;25.612;2024-01-15T07:21:34;93793.05;;;4.40;63.59
84028;BME280;74111;45.650;25.612;2024-01-15T07:24:02;93783.22;;;4.81;50.40
84028;BME280;74111;45.650;25.612;2024-01-15T07:26:31;93778.86;;;4.28;51.63
84028;BME280;74111;45.650;25.612;2024-01-15T07:28:59;93780.00;;;3.62;51.08
84028;BME280;74111;45.650;25.612;2024-01-15T07:31:27;93779.97;;;2.90;49.20
84028;BME280;74111;45.650;25.612;2024-01-15T07:33:56;93772.95;;;2.27;50.46
84028;BME280;74111;45.650;25.612;2024-01-15T07:36:24;93773.77;;;1.75;52.44
84028;BME280;74111;45.650;25.612;2024-01-15T07:38:53;93771.16;;;1.34;54.22
84028;BME280;74111;45.650;25.612;2024-01-15T07:41:21;93771.05;;;0.99;55.23
84028;BME280;74111;45.650;25.612;2024-01-15T07:43:49;93774.09;;;0.77;56.25
84028;BME280;74111;45.650;25.612;2024-01-15T07:46:17;93770.25;;;0.55;55.23
84028;BME280;74111;45.650;25.612;2024-01-15T07:48:45;93774.09;;;0.32;55.37
84028;BME280;74111;45.650;25.612;2024-01-15T07:51:14;93778.13;;;0.12;56.04
84028;BME280;74111;45.650;25.612;2024-01-15T07:53:43;93768.41;;;-0.02;57.02
84028;BME280;74111;45.650;25.612;2024-01-15T07:56:11;93766.73;;;-0.10;56.94
84028;BME280;74111;45.650;25.612;2024-01-15T07:58:39;93764.86;;;-0.15;57.25
84028;BME280;74111;45.650;25.612;2024-01-15T08:01:08;93764.40;;;-0.17;57.94
84028;BME280;74111;45.650;25.612;2024-01-15T08:03:36;93768.44;;;-0.20;57.60
84028;BME280;74111;45.650;25.612;2024-01-15T08:06:05;93771.16;;;-0.24;58.11
84028;BME280;74111;45.650;25.612;2024-01-15T08:08:33;93766.34;;;-0.28;57.81
84028;BME280;74111;45.650;25.612;2024-01-15T08:11:02;93762.33;;;-0.35;57.50
84028;BME280;74111;45.650;25.612;2024-01-15T08:13:30;93765.34;;;-0.28;58.35
84028;BME280;74111;45.650;25.612;2024-01-15T08:15:58;93764.50;;;-0.20;58.35
84028;BME280;74111;45.650;25.612;2024-01-15T08:18:27;93765.08;;;-0.08;58.85
84028;BME280;74111;45.650;25.612;2024-01-15T08:20:55;93761.06;;;0.06;58.38
84028;BME280;74111;45.650;25.612;2024-01-15T08:23:23;93762.67;;;0.17;58.16
84028;BME280;74111;45.650;25.612;2024-01-15T08:25:52;93757.83;;;0.28;57.03
84028;BME280;74111;45.650;25.612;2024-01-15T08:28:20;93763.09;;;0.37;57.63
84028;BME280;74111;45.650;25.612;2024-01-15T08:30:48;93764.71;;;0.50;57.67
84028;BME280;74111;45.650;25.612;2024-01-15T08:33:17;93764.92;;;0.63;57.58
84028;BME280;74111;45.650;25.612;2024-01-15T08:35:49;93765.13;;;0.77;57.89
84028;BME280;74111;45.650;25.612;2024-01-15T08:38:18;93763.12;;;0.92;57.44
84028;BME280;74111;45.650;25.612;2024-01-15T08:40:48;93759.42;;;1.06;57.19
84028;BME280;74111;45.650;25.612;2024-01-15T08:43:17;93754.39;;;1.22;56.95
84028;BME280;74111;45.650;25.612;2024-01-15T08:45:45;93753.78;;;1.37;56.36
84028;BME280;74111;45.650;25.612;2024-01-15T08:48:14;93752.42;;;1.50;55.72
84028;BME280;74111;45.650;25.612;2024-01-15T08:50:42;93748.50;;;1.62;55.18
84028;BME280;74111;45.650;25.612;2024-01-15T08:53:14;93738.70;;;1.78;54.98
84028;BME280;74111;45.650;25.612;2024-01-15T08:55:42;93724.45;;;1.92;53.92
84028;BME280;74111;45.650;25.612;2024-01-15T08:58:11;93723.87;;;2.04;54.75
84028;BME280;74111;45.650;25.612;2024-01-15T09:00:40;93699.54;;;2.16;54.97
84028;BME280;74111;45.650;25.612;2024-01-15T09:03:08;93695.57;;;2.27;54.89
84028;BME280;74111;45.650;25.612;2024-01-15T09:05:37;93688.36;;;2.37;54.03
84028;BME280;74111;45.650;25.612;2024-01-15T09:08:05;93688.89;;;2.41;52.60
84028;BME280;74111;45.650;25.612;2024-01-15T09:10:33;93684.52;;;2.50;53.21
84028;BME280;74111;45.650;25.612;2024-01-15T09:13:01;93685.63;;;2.59;52.15
84028;BME280;74111;45.650;25.612;2024-01-15T09:15:31;93673.05;;;2.60;51.73
84028;BME280;74111;45.650;25.612;2024-01-15T09:18:00;93664.58;;;2.62;53.01
84028;BME280;74111;45.650;25.612;2024-01-15T09:20:35;93661.53;;;2.62;52.59
84028;BME280;74111;45.650;25.612;2024-01-15T09:23:04;93661.96;;;2.68;53.23
84028;BME280;74111;45.650;25.612;2024-01-15T09:25:32;93656.55;;;2.79;52.43
84028;BME280;74111;45.650;25.612;2024-01-15T09:28:00;93655.80;;;2.99;52.79
84028;BME280;74111;45.650;25.612;2024-01-15T09:30:28;93654.52;;;3.38;51.69
84028;BME280;74111;45.650;25.612;2024-01-15T09:32:57;93649.40;;;3.79;52.17
84028;BME280;74111;45.650;25.612;2024-01-15T09:35:27;93642.28;;;4.27;52.61
84028;BME280;74111;45.650;25.612;2024-01-15T09:37:55;93643.23;;;4.82;50.78
84028;BME280;74111;45.650;25.612;2024-01-15T09:40:25;93640.55;;;5.28;49.72
84028;BME280;74111;45.650;25.612;2024-01-15T09:43:00;93637.55;;;5.75;49.19
84028;BME280;74111;45.650;25.612;2024-01-15T09:45:29;93636.49;;;6.20;46.82
84028;BME280;74111;45.650;25.612;2024-01-15T09:47:58;93628.00;;;6.39;46.40
84028;BME280;74111;45.650;25.612;2024-01-15T09:50:27;93629.84;;;6.52;48.01
84028;BME280;74111;45.650;25.612;2024-01-15T09:52:56;93622.91;;;6.62;47.73
84028;BME280;74111;45.650;25.612;2024-01-15T09:55:25;93612.98;;;6.61;45.23
84028;BME280;74111;45.650;25.612;2024-01-15T09:57:54;93614.59;;;6.51;45.69
84028;BME280;74111;45.650;25.612;2024-01-15T10:00:23;93614.67;;;6.41;45.87
84028;BME280;74111;45.650;25.612;2024-01-15T10:02:53;93609.77;;;6.29;45.06
84028;BME280;74111;45.650;25.612;2024-01-15T10:05:21;93602.53;;;6.19;46.60
84028;BME280;74111;45.650;25.612;2024-01-15T10:07:50;93598.46;;;6.11;47.01
84028;BME280;74111;45.650;25.612;2024-01-15T10:10:20;93598.08;;;6.05;47.13
84028;BME280;74111;45.650;25.612;2024-01-15T10:12:50;93586.85;;;6.07;47.21
84028;BME280;74111;45.650;25.612;2024-01-15T10:15:22;93587.13;;;6.11;46.19
84028;BME280;74111;45.650;25.612;2024-01-15T10:17:52;93584.02;;;6.10;44.61
84028;BME280;74111;45.650;25.612;2024-01-15T10:20:20;93578.06;;;6.13;45.26
84028;BME280;74111;45.650;25.612;2024-01-15T10:22:50;93572.82;;;6.15;46.18
84028;BME280;74111;45.650;25.612;2024-01-15T10:25:18;93571.65;;;6.16;44.52
84028;BME280;74111;45.650;25.612;2024-01-15T10:28:00;93559.59;;;6.19;46.62
84028;BME280;74111;45.650;25.612;2024-01-15T10:30:29;93553.48;;;6.32;47.39
84028;BME280;74111;45.650;25.612;2024-01-15T10:33:05;93545.11;;;6.41;46.53
84028;BME280;74111;45.650;25.612;2024-01-15T10:35:34;93538.29;;;6.45;46.54
84028;BME280;74111;45.650;25.612;2024-01-15T10:38:03;93537.52;;;6.43;45.08
84028;BME280;74111;45.650;25.612;2024-01-15T10:40:33;93533.17;;;6.47;44.56
84028;BME280;74111;45.650;25.612;2024-01-15T10:43:01;93524.00;;;6.56;45.73
84028;BME280;74111;45.650;25.612;2024-01-15T10:45:31;93521.13;;;6.67;45.41
84028;BME280;74111;45.650;25.612;2024-01-15T10:47:59;93513.73;;;6.76;43.84
84028;BME280;74111;45.650;25.612;2024-01-15T10:50:31;93503.39;;;6.69;42.45
84028;BME280;74111;45.650;25.612;2024-01-15T10:53:00;93499.97;;;6.74;43.62
84028;BME280;74111;45.650;25.612;2024-01-15T10:55:31;93501.26;;;6.88;43.84
84028;BME280;74111;45.650;25.612;2024-01-15T10:58:00;93495.94;;;7.06;43.63
84028;BME280;74111;45.650;25.612;2024-01-15T11:00:30;93485.45;;;7.17;44.24
84028;BME280;74111;45.650;25.612;2024-01-15T11:03:03;93481.86;;;7.23;43.53
84028;BME280;74111;45.650;25.612;2024-01-15T11:05:36;93484.36;;;7.16;42.55
84028;BME280;74111;45.650;25.612;2024-01-15T11:08:06;93478.87;;;7.19;43.27
84028;BME280;74111;45.650;25.612;2024-01-15T11:13:14;93469.26;;;7.17;42.86
84028;BME280;74111;45.650;25.612;2024-01-15T11:16:03;93464.14;;;7.18;43.32
84028;BME280;74111;45.650;25.612;2024-01-15T11:21:28;93461.40;;;7.06;42.83
84028;BME280;74111;45.650;25.612;2024-01-15T11:24:00;93462.44;;;6.91;42.80
84028;BME280;74111;45.650;25.612;2024-01-15T11:29:28;93453.79;;;6.90;43.70
84028;BME280;74111;45.650;25.612;2024-01-15T11:34:54;93454.14;;;6.77;43.67
84028;BME280;74111;45.650;25.612;2024-01-15T11:40:20;93447.01;;;6.65;43.92
84028;BME280;74111;45.650;25.612;2024-01-15T11:42:49;93461.01;;;6.59;43.98
84028;BME280;74111;45.650;25.612;2024-01-15T11:45:19;93444.34;;;6.55;44.11
84028;BME280;74111;45.650;25.612;2024-01-15T11:50:49;93431.37;;;6.53;44.56
84028;BME280;74111;45.650;25.612;2024-01-15T11:55:51;93407.60;;;6.50;44.49
84028;BME280;74111;45.650;25.612;2024-01-15T11:58:20;93405.23;;;6.46;44.24
84028;BME280;74111;45.650;25.612;2024-01-15T12:00:51;93402.27;;;6.45;44.33
84028;BME280;74111;45.650;25.612;2024-01-15T12:03:22;93376.90;;;6.46;44.73
84028;BME280;74111;45.650;25.612;2024-01-15T12:05:54;93388.02;;;6.46;44.67
84028;BME280;74111;45.650;25.612;2024-01-15T12:08:24;93363.62;;;6.46;44.86
84028;BME280;74111;45.650;25.612;2024-01-15T12:10:53;93359.00;;;6.52;45.00
84028;BME280;74111;45.650;25.612;2024-01-15T12:13:21;93363.35;;;6.58;44.58
84028;BME280;74111;45.650;25.612;2024-01-15T12:15:50;93355.14;;;6.68;44.84
84028;BME280;74111;45.650;25.612;2024-01-15T12:18:19;93362.27;;;6.82;44.40
84028;BME280;74111;45.650;25.612;2024-01-15T12:20:48;93367.52;;;7.09;43.87
84028;BME280;74111;45.650;25.612;2024-01-15T12:23:17;93369.66;;;7.35;43.21
84028;BME280;74111;45.650;25.612;2024-01-15T12:25:46;93367.74;;;7.44;42.54
84028;BME280;74111;45.650;25.612;2024-01-15T12:28:15;93356.77;;;7.46;42.84
84028;BME280;74111;45.650;25.612;2024-01-15T12:30:46;93360.05;;;7.49;42.74
84028;BME280;74111;45.650;25.612;2024-01-15T12:33:19;93362.11;;;7.43;42.62
84028;BME280;74111;45.650;25.612;2024-01-15T12:35:52;93358.58;;;7.40;42.75
84028;BME280;74111;45.650;25.612;2024-01-15T12:38:22;93348.15;;;7.38;42.73
84028;BME280;74111;45.650;25.612;2024-01-15T12:40:51;93345.26;;;7.38;42.96
84028;BME280;74111;45.650;25.612;2024-01-15T12:43:19;93344.70;;;7.31;42.63
84028;BME280;74111;45.650;25.612;2024-01-15T12:45:50;93340.96;;;7.20;42.39
84028;BME280;74111;45.650;25.612;2024-01-15T12:48:19;93345.43;;;7.09;42.76
84028;BME280;74111;45.650;25.612;2024-01-15T12:50:47;93345.55;;;7.00;43.05
84028;BME280;74111;45.650;25.612;2024-01-15T12:53:16;93332.15;;;6.92;43.16
84028;BME280;74111;45.650;25.612;2024-01-15T12:55:45;93332.23;;;6.87;43.05
84028;BME280;74111;45.650;25.612;2024-01-15T12:58:14;93325.59;;;6.81;43.19
84028;BME280;74111;45.650;25.612;2024-01-15T13:00:47;93323.67;;;6.80;43.31
84028;BME280;74111;45.650;25.612;2024-01-15T13:03:16;93322.41;;;6.75;43.34
84028;BME280;74111;45.650;25.612;2024-01-15T13:05:44;93316.31;;;6.72;43.47
84028;BME280;74111;45.650;25.612;2024-01-15T13:08:13;93319.80;;;6.66;43.50
84028;BME280;74111;45.650;25.612;2024-01-15T13:10:41;93316.05;;;6.60;43.51
84028;BME280;74111;45.650;25.612;2024-01-15T13:13:10;93308.98;;;6.58;43.54
84028;BME280;74111;45.650;25.612;2024-01-15T13:15:38;93314.95;;;6.52;43.78
84028;BME280;74111;45.650;25.612;2024-01-15T13:18:06;93315.94;;;6.52;43.75
84028;BME280;74111;45.650;25.612;2024-01-15T13:20:35;93315.38;;;6.51;44.05
84028;BME280;74111;45.650;25.612;2024-01-15T13:23:03;93316.84;;;6.50;44.00